createdAt,value
2022-09-07T00:02:16.664Z,11.3
2022-09-07T00:07:16.910Z,11.3
2022-09-07T00:12:17.167Z,10.1
2022-09-07T00:17:17.371Z,7.4
2022-09-07T00:22:17.630Z,12.1
2022-09-07T00:27:17.841Z,10.6
2022-09-07T00:32:18.117Z,16.6
2022-09-07T00:37:18.326Z,8.0
2022-09-07T00:42:18.619Z,9.2
2022-09-07T00:47:18.842Z,9.2
2022-09-07T00:52:19.263Z,14.7
2022-09-07T00:57:19.411Z,8.9
2022-09-07T01:02:19.713Z,11.1
2022-09-07T01:07:19.942Z,11.1
2022-09-07T01:12:22.192Z,8.9
2022-09-07T01:17:20.399Z,8.9
2022-09-07T01:22:20.730Z,14.8
2022-09-07T01:27:20.928Z,15.8
2022-09-07T01:32:21.174Z,16.0
2022-09-07T01:37:21.419Z,15.0
2022-09-07T01:42:21.664Z,15.0
2022-09-07T01:47:21.886Z,12.2
2022-09-07T01:52:22.120Z,11.8
2022-09-07T01:57:22.340Z,27.2
2022-09-07T02:02:22.597Z,12.1
2022-09-07T02:07:22.786Z,12.9
2022-09-07T02:12:23.005Z,9.5
2022-09-07T02:17:23.280Z,21.2
2022-09-07T02:22:23.532Z,11.0
2022-09-07T02:27:25.775Z,15.9
2022-09-07T02:32:23.985Z,13.2
2022-09-07T02:37:24.217Z,11.6
2022-09-07T02:42:24.462Z,11.6
2022-09-07T02:47:24.687Z,18.6
2022-09-07T02:52:24.949Z,18.6
2022-09-07T03:02:25.499Z,16.7
2022-09-07T03:07:25.665Z,15.6
2022-09-07T03:12:25.961Z,16.3
2022-09-07T03:17:28.149Z,17.2
2022-09-07T03:22:28.908Z,15.3
2022-09-07T03:27:26.605Z,15.3
2022-09-07T03:32:26.849Z,19.7
2022-09-07T03:47:27.500Z,13.8
2022-09-07T03:52:27.705Z,18.6
2022-09-07T03:57:27.908Z,18.6
2022-09-07T04:02:28.124Z,12.1
2022-09-07T04:07:28.311Z,6.9
2022-09-07T04:12:28.482Z,5.4
2022-09-07T04:17:28.632Z,6.6
2022-09-07T04:22:28.806Z,6.8
2022-09-07T04:27:28.985Z,6.8
2022-09-07T04:32:29.195Z,5.7
2022-09-07T04:37:29.266Z,7.6
2022-09-07T04:42:29.462Z,5.9
2022-09-07T04:52:29.766Z,4.8
2022-09-07T04:57:29.947Z,16.0
2022-09-07T05:02:30.146Z,11.2
2022-09-07T05:07:30.305Z,10.8
2022-09-07T05:12:30.463Z,9.4
2022-09-07T05:17:32.650Z,12.5
2022-09-07T05:22:30.795Z,6.3
2022-09-07T05:27:31.054Z,6.3
2022-09-07T05:32:33.376Z,13.4
2022-09-07T05:37:31.399Z,9.9
2022-09-07T05:42:31.599Z,7.5
2022-09-07T05:47:31.781Z,7.9
2022-09-07T05:52:31.977Z,7.9
2022-09-07T05:57:32.190Z,17.0
2022-09-07T06:02:38.990Z,11.0
2022-09-07T06:07:32.616Z,11.5
2022-09-07T06:12:32.878Z,17.1
2022-09-07T06:17:33.160Z,11.0
2022-09-07T06:22:33.428Z,21.7
2022-09-07T06:27:33.720Z,7.2
2022-09-07T06:37:34.208Z,7.8
2022-09-07T06:42:34.494Z,8.5
2022-09-07T06:47:34.758Z,13.7
2022-09-07T06:57:35.230Z,8.0
2022-09-07T07:02:35.458Z,8.0
2022-09-07T07:07:35.699Z,15.7
2022-09-07T07:17:38.286Z,12.9
2022-09-07T07:22:46.711Z,13.4
2022-09-07T07:27:36.673Z,8.7
2022-09-07T07:32:36.954Z,19.2
2022-09-07T07:37:37.244Z,19.2
2022-09-07T07:42:37.584Z,17.4
2022-09-07T07:47:37.835Z,17.4
2022-09-07T07:57:38.332Z,14.2
2022-09-07T08:02:38.590Z,14.8
2022-09-07T08:07:38.871Z,23.2
2022-09-07T08:12:39.176Z,29.4
2022-09-07T08:17:41.488Z,18.4
2022-09-07T08:22:39.781Z,13.3
2022-09-07T08:27:40.027Z,13.3
2022-09-07T08:32:40.280Z,14.9
2022-09-07T08:42:40.944Z,14.0
2022-09-07T08:47:41.155Z,12.6
2022-09-07T08:52:41.465Z,12.6
2022-09-07T09:02:44.043Z,20.7
2022-09-07T09:07:42.354Z,22.0
2022-09-07T09:12:42.682Z,12.9
2022-09-07T09:17:43.025Z,12.9
2022-09-07T09:22:43.295Z,19.4
2022-09-07T09:27:43.636Z,19.4
2022-09-07T09:32:43.976Z,19.4
2022-09-07T09:37:44.245Z,19.6
2022-09-07T09:42:44.534Z,19.6
2022-09-07T09:47:44.916Z,17.1
2022-09-07T09:52:50.857Z,23.4
2022-09-07T09:59:04.632Z,23.4
2022-09-07T10:07:48.011Z,16.0
2022-09-07T10:12:46.272Z,20.2
2022-09-07T10:17:46.569Z,20.2
2022-09-07T10:22:51.349Z,10.6
2022-09-07T10:27:47.265Z,10.6
2022-09-07T10:32:47.992Z,14.0
2022-09-07T10:37:47.861Z,14.0
2022-09-07T10:43:20.475Z,18.7
2022-09-07T10:47:48.674Z,19.8
2022-09-07T10:52:52.896Z,17.7
2022-09-07T10:57:49.427Z,16.4
2022-09-07T11:07:51.903Z,17.1
2022-09-07T11:12:50.303Z,24.7
2022-09-07T11:17:53.010Z,24.7
2022-09-07T11:22:53.435Z,16.5
2022-09-07T11:27:51.292Z,16.5
2022-09-07T11:32:51.667Z,10.1
2022-09-07T11:37:52.064Z,19.3
2022-09-07T11:42:52.456Z,10.2
2022-09-07T11:47:52.882Z,11.6
2022-09-07T11:52:55.271Z,11.6
2022-09-07T11:57:55.989Z,21.1
2022-09-07T12:03:00.042Z,13.0
2022-09-07T12:07:54.767Z,13.0
2022-09-07T12:12:54.938Z,13.5
2022-09-07T12:17:55.323Z,13.9
2022-09-07T12:22:55.686Z,11.2
2022-09-07T12:27:56.074Z,17.7
2022-09-07T12:32:58.162Z,17.7
2022-09-07T12:37:56.900Z,14.3
2022-09-07T12:42:57.323Z,10.9
2022-09-07T12:47:57.815Z,10.9
2022-09-07T12:52:58.205Z,12.6
2022-09-07T12:57:58.730Z,15.0
2022-09-07T13:02:59.078Z,15.7
2022-09-07T13:08:07.225Z,15.7
2022-09-07T13:13:00.019Z,21.3
2022-09-07T13:18:00.442Z,12.8
2022-09-07T13:28:01.231Z,13.9
2022-09-07T13:33:09.185Z,6.7
2022-09-07T13:38:02.131Z,9.0
2022-09-07T13:48:03.003Z,11.2
2022-09-07T13:53:03.441Z,10.4
2022-09-07T13:58:03.847Z,10.4
2022-09-07T14:03:04.417Z,10.8
2022-09-07T14:08:04.750Z,10.8
2022-09-07T14:13:05.152Z,8.4
2022-09-07T14:18:05.570Z,11.3
2022-09-07T14:23:05.985Z,17.5
2022-09-07T14:28:06.380Z,16.9
2022-09-07T14:33:06.795Z,10.8
2022-09-07T14:38:07.603Z,14.8
2022-09-07T14:43:07.535Z,9.4
2022-09-07T14:48:07.997Z,9.4
2022-09-07T14:53:35.018Z,12.8
2022-09-07T15:03:11.223Z,15.2
2022-09-07T15:08:09.736Z,13.6
2022-09-07T15:13:11.062Z,9.5
2022-09-07T15:18:12.548Z,9.5
2022-09-07T15:23:10.978Z,13.8
2022-09-07T15:28:12.387Z,8.1
2022-09-07T15:33:11.890Z,9.0
2022-09-07T15:43:20.295Z,9.3
2022-09-07T15:48:15.825Z,12.9
2022-09-07T15:58:14.389Z,14.2
2022-09-07T16:03:14.803Z,7.6
2022-09-07T16:08:27.620Z,13.2
2022-09-07T16:13:16.907Z,13.2
2022-09-07T16:18:16.788Z,11.6
2022-09-07T16:23:17.240Z,12.1
2022-09-07T16:28:16.908Z,13.8
2022-09-07T16:33:17.357Z,9.8
2022-09-07T16:38:45.332Z,6.3
2022-09-07T16:43:18.083Z,9.2
2022-09-07T16:48:18.510Z,12.8
2022-09-07T16:53:19.068Z,12.8
2022-09-07T16:58:37.221Z,11.4
2022-09-07T17:08:20.278Z,10.9
2022-09-07T17:13:20.690Z,13.2
2022-09-07T17:19:28.893Z,12.4
2022-09-07T17:23:21.628Z,9.9
2022-09-07T17:28:21.964Z,9.7
2022-09-07T17:33:22.388Z,11.9
2022-09-07T17:43:39.288Z,8.0
2022-09-07T17:48:23.469Z,8.0
2022-09-07T17:53:23.841Z,7.7
2022-09-07T17:58:26.215Z,11.5
2022-09-07T18:03:24.560Z,16.6
2022-09-07T18:08:24.943Z,16.6
2022-09-07T18:13:35.079Z,6.0
2022-09-07T18:18:25.643Z,6.0
2022-09-07T18:23:26.027Z,6.9
2022-09-07T18:33:26.561Z,6.1
2022-09-07T18:43:27.945Z,7.5
2022-09-07T18:48:27.302Z,4.2
2022-09-07T18:53:27.610Z,4.2
2022-09-07T18:58:27.898Z,6.5
2022-09-07T19:03:28.080Z,15.6
2022-09-07T19:08:28.351Z,15.6
2022-09-07T19:13:28.767Z,11.5
2022-09-07T19:18:28.844Z,15.8
2022-09-07T19:23:29.237Z,15.8
2022-09-07T19:28:29.314Z,7.7
2022-09-07T19:33:29.641Z,7.7
2022-09-07T19:38:29.809Z,5.0
2022-09-07T19:43:30.078Z,5.0
2022-09-07T19:48:30.278Z,7.6
2022-09-07T19:53:30.941Z,8.5
2022-09-07T19:58:30.777Z,6.9
2022-09-07T20:03:31.177Z,5.7
2022-09-07T20:08:31.287Z,3.6
2022-09-07T20:13:31.625Z,8.3
2022-09-07T20:18:31.825Z,5.7
2022-09-07T20:23:32.139Z,10.4
2022-09-07T20:28:32.294Z,8.8
2022-09-07T20:33:32.683Z,6.3
2022-09-07T20:38:32.823Z,3.9
2022-09-07T20:43:33.293Z,3.9
2022-09-07T20:48:33.370Z,2.1
2022-09-07T20:53:33.797Z,4.1
2022-09-07T20:58:33.912Z,3.4
2022-09-07T21:03:34.254Z,6.8
2022-09-07T21:08:34.315Z,7.0
2022-09-07T21:13:34.566Z,8.0
2022-09-07T21:18:34.808Z,16.6
2022-09-07T21:23:35.102Z,3.8
2022-09-07T21:28:35.293Z,6.7
2022-09-07T21:33:35.557Z,5.8
2022-09-07T21:38:37.755Z,5.9
2022-09-07T21:43:35.973Z,6.8
2022-09-07T21:48:36.139Z,8.8
2022-09-07T21:53:36.349Z,8.8
2022-09-07T21:58:36.573Z,2.0
2022-09-07T22:03:38.782Z,11.0
2022-09-07T22:08:36.919Z,7.1
2022-09-07T22:13:37.146Z,4.4
2022-09-07T22:18:37.413Z,5.5
2022-09-07T22:23:37.575Z,5.5
2022-09-07T22:28:37.853Z,6.5
2022-09-07T22:43:38.430Z,11.2
2022-09-07T22:48:39.511Z,7.4
2022-09-07T22:53:38.848Z,5.9
2022-09-07T22:58:39.062Z,6.6
2022-09-07T23:03:39.581Z,8.8
2022-09-07T23:08:39.522Z,7.5
2022-09-07T23:13:39.761Z,2.2
2022-09-07T23:18:40.079Z,11.9
2022-09-07T23:23:40.234Z,11.9
2022-09-07T23:28:40.554Z,3.1
2022-09-07T23:33:40.737Z,5.9
2022-09-07T23:38:40.953Z,5.6
2022-09-07T23:43:45.260Z,9.2
2022-09-07T23:48:41.592Z,4.4
2022-09-07T23:53:41.502Z,4.4
2022-09-07T23:58:41.894Z,4.2
